createdAt,value
2022-12-08T00:01:22.588Z,4.90
2022-12-08T00:03:50.421Z,2.40
2022-12-08T00:06:53.706Z,2.50
2022-12-08T00:09:41.512Z,3.03
2022-12-08T00:12:13.915Z,3.80
2022-12-08T00:14:46.893Z,3.10
2022-12-08T00:17:15.876Z,2.13
2022-12-08T00:19:43.968Z,2.30
2022-12-08T00:22:12.502Z,3.57
2022-12-08T00:24:40.786Z,3.33
2022-12-08T00:27:09.326Z,3.47
2022-12-08T00:29:37.191Z,3.73
2022-12-08T00:32:04.909Z,4.80
2022-12-08T00:34:33.281Z,3.90
2022-12-08T00:37:00.507Z,3.80
2022-12-08T00:39:27.859Z,3.27
2022-12-08T00:42:12.813Z,1.70
2022-12-08T00:44:40.939Z,3.53
2022-12-08T00:47:07.939Z,2.57
2022-12-08T00:49:35.039Z,3.90
2022-12-08T00:52:02.122Z,3.00
2022-12-08T00:54:29.212Z,2.97
2022-12-08T00:56:56.332Z,3.67
2022-12-08T00:59:23.305Z,3.07
2022-12-08T01:01:50.348Z,4.13
2022-12-08T01:04:19.246Z,3.93
2022-12-08T01:06:46.994Z,3.50
2022-12-08T01:09:15.375Z,5.00
2022-12-08T01:11:44.574Z,3.90
2022-12-08T01:14:12.531Z,3.33
2022-12-08T01:16:41.620Z,3.07
2022-12-08T01:19:11.332Z,3.87
2022-12-08T01:21:38.384Z,2.90
2022-12-08T01:24:05.802Z,3.53
2022-12-08T01:26:32.806Z,3.70
2022-12-08T01:29:00.104Z,1.93
2022-12-08T01:31:27.314Z,3.03
2022-12-08T01:33:54.344Z,3.17
2022-12-08T01:36:30.496Z,3.53
2022-12-08T01:39:00.009Z,2.43
2022-12-08T01:41:32.433Z,3.70
2022-12-08T01:44:08.332Z,3.83
2022-12-08T01:46:38.317Z,3.33
2022-12-08T01:49:05.292Z,4.03
2022-12-08T01:51:38.510Z,3.27
2022-12-08T01:54:07.045Z,2.87
2022-12-08T01:56:42.763Z,2.40
2022-12-08T01:59:11.866Z,3.40
2022-12-08T02:01:39.364Z,3.77
2022-12-08T02:04:06.870Z,3.47
2022-12-08T02:06:39.885Z,3.60
2022-12-08T02:09:07.467Z,3.57
2022-12-08T02:11:34.555Z,3.40
2022-12-08T02:14:08.390Z,3.00
2022-12-08T02:16:43.410Z,3.35
2022-12-08T02:19:32.349Z,3.10
2022-12-08T02:22:17.516Z,2.37
2022-12-08T02:25:22.193Z,3.27
2022-12-08T02:28:21.161Z,2.97
2022-12-08T02:31:05.389Z,2.53
2022-12-08T02:34:07.755Z,3.23
2022-12-08T02:36:44.309Z,2.83
2022-12-08T02:39:25.068Z,2.00
2022-12-08T02:42:04.438Z,3.10
2022-12-08T02:44:52.762Z,3.53
2022-12-08T02:47:21.918Z,2.77
2022-12-08T02:49:49.136Z,4.13
2022-12-08T02:52:18.918Z,3.80
2022-12-08T02:54:53.994Z,3.80
2022-12-08T02:57:49.222Z,2.67
2022-12-08T03:00:20.149Z,3.23
2022-12-08T03:05:51.160Z,3.90
2022-12-08T03:08:36.192Z,2.67
2022-12-08T03:11:21.062Z,3.30
2022-12-08T03:13:54.344Z,2.33
2022-12-08T03:16:26.607Z,3.07
2022-12-08T03:19:03.637Z,2.53
2022-12-08T03:21:35.258Z,2.63
2022-12-08T03:24:06.866Z,2.60
2022-12-08T03:26:45.904Z,4.03
2022-12-08T03:29:14.082Z,2.47
2022-12-08T03:31:49.469Z,3.43
2022-12-08T03:34:18.302Z,3.77
2022-12-08T03:36:45.803Z,2.30
2022-12-08T03:39:12.848Z,5.33
2022-12-08T03:41:39.777Z,4.43
2022-12-08T03:44:06.931Z,3.67
2022-12-08T03:46:33.960Z,3.83
2022-12-08T03:49:00.997Z,2.20
2022-12-08T03:51:28.296Z,3.60
2022-12-08T03:53:55.331Z,3.13
2022-12-08T03:56:29.738Z,3.53
2022-12-08T03:58:57.036Z,3.67
2022-12-08T04:01:24.482Z,4.83
2022-12-08T04:03:52.154Z,2.30
2022-12-08T04:06:20.249Z,4.37
2022-12-08T04:08:47.996Z,3.30
2022-12-08T04:11:15.709Z,3.17
2022-12-08T04:13:43.387Z,3.80
2022-12-08T04:16:17.050Z,3.70
2022-12-08T04:18:44.239Z,4.37
2022-12-08T04:21:11.528Z,3.17
2022-12-08T04:23:38.527Z,3.90
2022-12-08T04:26:06.556Z,5.03
2022-12-08T04:28:33.942Z,4.50
2022-12-08T04:31:01.303Z,3.70
2022-12-08T04:33:28.410Z,4.37
2022-12-08T04:35:55.487Z,4.23
2022-12-08T04:38:22.863Z,3.40
2022-12-08T04:40:49.903Z,2.77
2022-12-08T04:43:16.921Z,2.50
2022-12-08T04:45:43.940Z,3.07
2022-12-08T04:48:13.286Z,4.07
2022-12-08T04:50:42.923Z,2.67
2022-12-08T04:53:11.168Z,4.47
2022-12-08T04:55:43.940Z,3.87
2022-12-08T04:58:15.020Z,2.90
2022-12-08T05:00:42.391Z,2.97
2022-12-08T05:03:09.981Z,3.53
2022-12-08T05:05:36.995Z,4.37
2022-12-08T05:08:04.794Z,3.23
2022-12-08T05:10:32.617Z,2.67
2022-12-08T05:13:01.054Z,3.27
2022-12-08T05:15:28.394Z,4.30
2022-12-08T05:17:55.484Z,3.17
2022-12-08T05:20:22.620Z,4.30
2022-12-08T05:22:49.730Z,4.23
2022-12-08T05:25:16.752Z,1.93
2022-12-08T05:27:43.905Z,2.90
2022-12-08T05:30:11.145Z,3.63
2022-12-08T05:32:38.156Z,3.67
2022-12-08T05:35:05.628Z,4.53
2022-12-08T05:37:32.601Z,3.83
2022-12-08T05:39:59.717Z,3.80
2022-12-08T05:42:26.673Z,3.43
2022-12-08T05:44:53.717Z,4.50
2022-12-08T05:47:20.781Z,3.30
2022-12-08T05:49:48.440Z,3.60
2022-12-08T05:52:16.998Z,3.27
2022-12-08T05:54:44.416Z,3.17
2022-12-08T05:57:11.654Z,3.60
2022-12-08T05:59:39.315Z,3.57
2022-12-08T06:02:06.527Z,3.13
2022-12-08T06:04:33.680Z,3.77
2022-12-08T06:07:00.651Z,1.67
2022-12-08T06:09:27.719Z,3.67
2022-12-08T06:11:54.668Z,3.40
2022-12-08T06:14:21.722Z,2.30
2022-12-08T06:16:48.779Z,3.57
2022-12-08T06:19:16.069Z,4.07
2022-12-08T06:21:43.018Z,3.23
2022-12-08T06:24:10.320Z,2.70
2022-12-08T06:26:37.795Z,3.13
2022-12-08T06:29:05.138Z,3.23
2022-12-08T06:31:32.262Z,4.73
2022-12-08T06:33:59.350Z,4.07
2022-12-08T06:36:28.266Z,2.73
2022-12-08T06:38:55.723Z,3.17
2022-12-08T06:41:23.089Z,2.60
2022-12-08T06:43:50.150Z,3.03
2022-12-08T06:46:19.679Z,4.60
2022-12-08T06:48:47.243Z,4.70
2022-12-08T06:51:17.172Z,3.83
2022-12-08T06:53:44.645Z,4.93
2022-12-08T06:56:12.137Z,4.70
2022-12-08T06:58:39.202Z,4.23
2022-12-08T07:01:12.468Z,2.80
2022-12-08T07:03:40.889Z,4.50
2022-12-08T07:06:08.006Z,3.60
2022-12-08T07:08:35.262Z,3.50
2022-12-08T07:11:12.383Z,3.27
2022-12-08T07:13:41.239Z,4.23
2022-12-08T07:16:09.963Z,2.80
2022-12-08T07:18:37.795Z,3.17
2022-12-08T07:21:10.859Z,3.37
2022-12-08T07:23:38.347Z,3.50
2022-12-08T07:26:08.443Z,3.50
2022-12-08T07:28:38.278Z,3.03
2022-12-08T07:31:06.508Z,3.17
2022-12-08T07:33:36.206Z,3.40
2022-12-08T07:36:06.800Z,4.00
2022-12-08T07:38:34.141Z,4.38
2022-12-08T07:41:01.511Z,3.40
2022-12-08T07:43:28.543Z,3.70
2022-12-08T07:45:55.679Z,6.00
2022-12-08T07:48:22.956Z,3.47
2022-12-08T07:50:49.932Z,2.83
2022-12-08T07:53:16.851Z,3.87
2022-12-08T07:55:44.399Z,3.80
2022-12-08T07:58:12.251Z,2.87
2022-12-08T08:00:39.298Z,3.17
2022-12-08T08:03:06.608Z,3.17
2022-12-08T08:05:33.581Z,3.63
2022-12-08T08:08:00.591Z,3.80
2022-12-08T08:10:27.698Z,3.30
2022-12-08T08:12:54.863Z,3.70
2022-12-08T08:15:22.093Z,2.60
2022-12-08T08:17:53.522Z,4.57
2022-12-08T08:20:21.827Z,3.83
2022-12-08T08:22:50.707Z,5.03
2022-12-08T08:25:18.776Z,3.20
2022-12-08T08:27:46.920Z,3.73
2022-12-08T08:30:19.938Z,4.03
2022-12-08T08:32:48.132Z,2.97
2022-12-08T08:35:15.220Z,3.00
2022-12-08T08:37:47.210Z,3.27
2022-12-08T08:40:16.774Z,3.60
2022-12-08T08:42:43.795Z,2.73
2022-12-08T08:45:11.311Z,3.27
2022-12-08T08:47:38.290Z,3.30
2022-12-08T08:50:06.110Z,3.47
2022-12-08T08:52:33.411Z,4.13
2022-12-08T08:55:00.461Z,4.17
2022-12-08T08:57:27.547Z,4.20
2022-12-08T08:59:54.985Z,3.87
2022-12-08T09:02:22.291Z,2.70
2022-12-08T09:04:49.558Z,3.90
2022-12-08T09:07:17.092Z,2.57
2022-12-08T09:09:44.136Z,3.97
2022-12-08T09:12:12.203Z,4.67
2022-12-08T09:14:39.429Z,2.77
2022-12-08T09:17:07.769Z,3.93
2022-12-08T09:19:35.135Z,3.37
2022-12-08T09:22:02.207Z,3.97
2022-12-08T09:24:29.228Z,4.50
2022-12-08T09:26:56.261Z,4.27
2022-12-08T09:29:23.239Z,3.93
2022-12-08T09:31:50.330Z,3.80
2022-12-08T09:34:17.389Z,3.43
2022-12-08T09:36:44.397Z,4.13
2022-12-08T09:39:11.419Z,3.60
2022-12-08T09:41:48.313Z,3.93
2022-12-08T09:44:31.360Z,3.07
2022-12-08T09:47:00.643Z,3.93
2022-12-08T09:49:41.024Z,4.43
2022-12-08T09:52:20.084Z,5.13
2022-12-08T09:54:47.378Z,5.50
2022-12-08T09:57:20.038Z,4.63
2022-12-08T09:59:55.761Z,4.90
2022-12-08T10:02:29.348Z,5.53
2022-12-08T10:04:57.900Z,3.70
2022-12-08T10:07:39.543Z,5.10
2022-12-08T10:10:34.143Z,4.20
2022-12-08T10:13:04.088Z,5.90
2022-12-08T10:15:42.034Z,6.17
2022-12-08T10:18:16.244Z,4.17
2022-12-08T10:20:45.650Z,5.50
2022-12-08T10:23:12.569Z,4.87
2022-12-08T10:26:05.255Z,4.53
2022-12-08T10:28:34.327Z,4.20
2022-12-08T10:31:01.664Z,4.43
2022-12-08T10:33:31.584Z,7.07
2022-12-08T10:36:01.949Z,4.67
2022-12-08T10:38:28.910Z,4.93
2022-12-08T10:41:04.712Z,5.60
2022-12-08T10:43:33.383Z,4.07
2022-12-08T10:46:16.010Z,4.27
2022-12-08T10:48:51.706Z,4.70
2022-12-08T10:51:35.486Z,5.73
2022-12-08T10:54:03.369Z,4.73
2022-12-08T10:56:31.984Z,4.53
2022-12-08T10:59:25.901Z,5.03
2022-12-08T11:01:55.610Z,3.03
2022-12-08T11:04:37.392Z,4.00
2022-12-08T11:07:13.169Z,5.20
2022-12-08T11:09:48.714Z,5.00
2022-12-08T11:12:21.523Z,5.50
2022-12-08T11:14:50.329Z,5.23
2022-12-08T11:17:23.118Z,5.47
2022-12-08T11:20:19.547Z,4.30
2022-12-08T11:22:55.738Z,5.00
2022-12-08T11:25:25.334Z,4.83
2022-12-08T11:27:58.650Z,4.90
2022-12-08T11:30:30.759Z,5.03
2022-12-08T11:33:19.765Z,5.13
2022-12-08T11:36:09.642Z,5.73
2022-12-08T11:38:42.022Z,4.27
2022-12-08T11:41:15.805Z,5.67
2022-12-08T11:43:55.826Z,5.17
2022-12-08T11:46:32.628Z,5.27
2022-12-08T11:49:06.804Z,4.00
2022-12-08T11:51:44.217Z,5.40
2022-12-08T11:54:24.240Z,5.77
2022-12-08T11:56:59.417Z,5.20
2022-12-08T11:59:39.620Z,4.57
2022-12-08T12:02:14.650Z,4.82
2022-12-08T12:05:07.905Z,3.77
2022-12-08T12:07:56.097Z,3.80
2022-12-08T12:10:25.892Z,5.07
2022-12-08T12:13:10.079Z,5.60
2022-12-08T12:15:37.006Z,4.17
2022-12-08T12:18:25.131Z,4.50
2022-12-08T12:21:12.389Z,4.77
2022-12-08T12:23:44.818Z,3.33
2022-12-08T12:26:22.939Z,4.50
2022-12-08T12:28:58.065Z,5.10
2022-12-08T12:31:29.679Z,5.07
2022-12-08T12:34:06.591Z,5.13
2022-12-08T12:36:47.591Z,3.63
2022-12-08T12:39:15.639Z,5.13
2022-12-08T12:41:52.350Z,3.93
2022-12-08T12:44:19.335Z,3.80
2022-12-08T12:46:46.364Z,5.30
2022-12-08T12:49:38.022Z,4.97
2022-12-08T12:52:10.779Z,5.80
2022-12-08T12:54:42.818Z,5.43
2022-12-08T12:57:09.738Z,4.77
2022-12-08T12:59:44.127Z,5.00
2022-12-08T13:02:27.600Z,5.60
2022-12-08T13:05:03.756Z,3.30
2022-12-08T13:07:49.444Z,5.10
2022-12-08T13:10:21.858Z,4.73
2022-12-08T13:13:16.937Z,5.03
2022-12-08T13:15:46.902Z,4.47
2022-12-08T13:18:23.895Z,4.87
2022-12-08T13:20:54.844Z,4.40
2022-12-08T13:26:22.171Z,4.63
2022-12-08T13:29:01.612Z,5.57
2022-12-08T13:31:41.642Z,5.00
2022-12-08T13:34:16.792Z,4.57
2022-12-08T13:36:59.841Z,5.23
2022-12-08T13:39:42.344Z,5.03
2022-12-08T13:42:12.486Z,5.80
2022-12-08T13:45:19.055Z,5.40
2022-12-08T13:47:54.366Z,5.03
2022-12-08T13:59:09.901Z,7.30
2022-12-08T14:01:44.959Z,5.70
2022-12-08T14:04:54.424Z,5.33
2022-12-08T14:07:06.355Z,5.07
2022-12-08T14:09:36.914Z,4.67
2022-12-08T14:12:17.613Z,5.00
2022-12-08T14:15:03.866Z,5.43
2022-12-08T14:17:34.997Z,5.85
2022-12-08T14:20:10.124Z,5.50
2022-12-08T14:22:40.216Z,5.80
2022-12-08T14:25:13.689Z,5.32
2022-12-08T14:27:40.959Z,5.60
2022-12-08T14:30:10.796Z,5.67
2022-12-08T14:32:40.375Z,5.70
2022-12-08T14:35:07.871Z,5.67
2022-12-08T14:37:42.387Z,10.57
2022-12-08T14:40:22.692Z,5.37
2022-12-08T14:43:06.120Z,5.95
2022-12-08T14:45:34.988Z,5.30
2022-12-08T14:48:27.831Z,5.57
2022-12-08T14:51:01.929Z,5.70
2022-12-08T14:53:45.245Z,6.07
2022-12-08T14:56:27.525Z,6.07
2022-12-08T14:59:25.565Z,4.53
2022-12-08T15:01:54.944Z,6.30
2022-12-08T15:04:28.645Z,6.57
2022-12-08T15:07:17.378Z,6.53
2022-12-08T15:09:50.174Z,7.13
2022-12-08T15:12:26.664Z,5.03
2022-12-08T15:15:17.780Z,6.13
2022-12-08T15:17:47.917Z,6.55
2022-12-08T15:20:35.611Z,6.90
2022-12-08T15:23:03.320Z,6.50
2022-12-08T15:25:30.519Z,7.40
2022-12-08T15:27:58.160Z,6.07
2022-12-08T15:30:28.762Z,6.57
2022-12-08T15:32:56.532Z,6.03
2022-12-08T15:35:23.636Z,5.90
2022-12-08T15:37:50.709Z,5.97
2022-12-08T15:40:20.632Z,6.47
2022-12-08T15:42:47.937Z,5.63
2022-12-08T15:45:17.186Z,7.73
2022-12-08T15:47:45.939Z,5.43
2022-12-08T15:50:21.948Z,5.37
2022-12-08T15:52:50.220Z,5.67
2022-12-08T15:55:19.527Z,6.57
2022-12-08T15:58:52.002Z,7.53
2022-12-08T16:00:54.450Z,6.03
2022-12-08T16:09:28.425Z,7.27
2022-12-08T16:12:15.063Z,7.20
2022-12-08T16:17:31.915Z,7.50
2022-12-08T16:20:00.173Z,7.50
2022-12-08T16:22:54.178Z,4.90
2022-12-08T16:25:19.396Z,6.80
2022-12-08T16:28:05.514Z,6.70
2022-12-08T16:30:36.241Z,4.33
2022-12-08T16:33:03.462Z,6.07
2022-12-08T16:35:31.341Z,7.63
2022-12-08T16:37:58.361Z,7.20
2022-12-08T16:40:25.351Z,8.90
2022-12-08T16:42:52.334Z,7.70
2022-12-08T16:45:25.390Z,7.77
2022-12-08T16:48:01.660Z,8.17
2022-12-08T16:50:34.182Z,7.17
2022-12-08T16:53:07.094Z,8.07
2022-12-08T16:55:34.506Z,8.90
2022-12-08T16:58:02.940Z,6.90
2022-12-08T17:00:31.599Z,7.40
2022-12-08T17:02:59.050Z,7.73
2022-12-08T17:05:26.812Z,7.97
2022-12-08T17:07:55.019Z,7.30
2022-12-08T17:10:25.279Z,8.30
2022-12-08T17:12:53.196Z,7.90
2022-12-08T17:15:23.461Z,9.43
2022-12-08T17:17:51.359Z,8.25
2022-12-08T17:20:24.595Z,8.83
2022-12-08T17:22:55.333Z,6.53
2022-12-08T17:25:22.381Z,8.25
2022-12-08T17:27:49.361Z,8.23
2022-12-08T17:30:35.294Z,10.33
2022-12-08T17:33:02.271Z,8.20
2022-12-08T17:35:29.340Z,8.93
2022-12-08T17:37:56.340Z,8.27
2022-12-08T17:40:26.888Z,8.23
2022-12-08T17:42:55.318Z,9.07
2022-12-08T17:45:22.334Z,7.73
2022-12-08T17:47:49.297Z,7.67
2022-12-08T17:50:16.364Z,8.97
2022-12-08T17:52:43.331Z,8.50
2022-12-08T17:55:10.667Z,7.60
2022-12-08T17:57:37.671Z,9.27
2022-12-08T18:00:05.905Z,9.13
2022-12-08T18:02:39.107Z,8.80
2022-12-08T18:05:06.588Z,8.27
2022-12-08T18:07:33.532Z,9.10
2022-12-08T18:10:00.511Z,9.17
2022-12-08T18:12:27.507Z,8.67
2022-12-08T18:14:54.567Z,9.27
2022-12-08T18:17:21.699Z,8.30
2022-12-08T18:19:48.775Z,8.70
2022-12-08T18:22:16.138Z,9.97
2022-12-08T18:24:44.337Z,9.10
2022-12-08T18:27:11.386Z,7.60
2022-12-08T18:29:38.798Z,9.37
2022-12-08T18:32:06.419Z,9.23
2022-12-08T18:34:34.288Z,8.17
2022-12-08T18:37:01.422Z,9.87
2022-12-08T18:39:31.398Z,9.50
2022-12-08T18:42:01.359Z,10.23
2022-12-08T18:44:28.891Z,9.77
2022-12-08T18:46:55.911Z,8.17
2022-12-08T18:49:22.905Z,8.77
2022-12-08T18:51:49.871Z,9.57
2022-12-08T18:54:16.824Z,9.07
2022-12-08T18:56:43.799Z,8.33
2022-12-08T18:59:12.489Z,10.53
2022-12-08T19:01:40.476Z,9.30
2022-12-08T19:04:27.820Z,9.93
2022-12-08T19:06:56.106Z,8.27
2022-12-08T19:09:24.567Z,9.87
2022-12-08T19:11:51.636Z,9.00
2022-12-08T19:14:24.030Z,10.93
2022-12-08T19:16:54.464Z,10.43
2022-12-08T19:19:21.662Z,10.23
2022-12-08T19:21:48.702Z,11.60
2022-12-08T19:24:16.129Z,10.77
2022-12-08T19:26:43.771Z,13.70
2022-12-08T19:29:11.610Z,10.03
2022-12-08T19:31:40.725Z,10.77
2022-12-08T19:34:09.355Z,12.23
2022-12-08T19:36:42.324Z,11.87
2022-12-08T19:39:36.657Z,10.83
2022-12-08T19:42:24.591Z,10.77
2022-12-08T19:44:54.678Z,11.33
2022-12-08T19:47:24.086Z,10.90
2022-12-08T19:49:51.943Z,10.33
2022-12-08T19:52:19.278Z,11.37
2022-12-08T19:54:46.569Z,12.13
2022-12-08T19:57:13.691Z,11.70
2022-12-08T19:59:40.735Z,11.33
2022-12-08T20:02:07.909Z,11.80
2022-12-08T20:04:35.057Z,11.73
2022-12-08T20:07:02.232Z,10.80
2022-12-08T20:09:29.353Z,9.87
2022-12-08T20:11:56.345Z,12.20
2022-12-08T20:14:23.698Z,12.03
2022-12-08T20:16:51.248Z,12.80
2022-12-08T20:19:18.617Z,12.27
2022-12-08T20:21:45.974Z,12.40
2022-12-08T20:24:13.030Z,11.77
2022-12-08T20:26:40.081Z,11.17
2022-12-08T20:29:07.100Z,11.60
2022-12-08T20:31:34.329Z,11.47
2022-12-08T20:34:02.025Z,10.60
2022-12-08T20:36:29.547Z,10.87
2022-12-08T20:38:56.663Z,12.00
2022-12-08T20:41:23.934Z,11.73
2022-12-08T20:43:51.954Z,11.67
2022-12-08T20:46:20.361Z,11.93
2022-12-08T20:48:47.567Z,11.97
2022-12-08T20:51:17.083Z,11.57
2022-12-08T20:53:44.750Z,11.20
2022-12-08T20:56:19.946Z,12.20
2022-12-08T20:58:47.443Z,12.60
2022-12-08T21:01:17.688Z,10.97
2022-12-08T21:03:45.918Z,11.27
2022-12-08T21:06:13.593Z,12.20
2022-12-08T21:08:42.285Z,9.70
2022-12-08T21:11:10.424Z,10.93
2022-12-08T21:13:38.708Z,12.00
2022-12-08T21:16:09.286Z,11.40
2022-12-08T21:18:39.612Z,12.50
2022-12-08T21:21:14.319Z,11.43
2022-12-08T21:23:42.410Z,12.80
2022-12-08T21:26:14.684Z,12.13
2022-12-08T21:28:42.602Z,13.17
2022-12-08T21:31:20.299Z,13.57
2022-12-08T21:33:48.546Z,12.30
2022-12-08T21:36:18.717Z,11.87
2022-12-08T21:38:47.274Z,11.98
2022-12-08T21:41:38.101Z,10.73
2022-12-08T21:44:06.098Z,11.00
2022-12-08T21:46:33.143Z,9.77
2022-12-08T21:49:00.332Z,11.33
2022-12-08T21:51:27.461Z,10.23
2022-12-08T21:53:54.726Z,9.20
2022-12-08T21:56:21.745Z,8.47
2022-12-08T21:58:49.812Z,10.77
2022-12-08T22:01:17.034Z,10.40
2022-12-08T22:03:44.217Z,9.23
2022-12-08T22:06:13.855Z,10.23
2022-12-08T22:08:41.919Z,11.77
2022-12-08T22:11:10.365Z,10.77
2022-12-08T22:13:39.769Z,10.47
2022-12-08T22:16:09.947Z,13.20
2022-12-08T22:18:37.660Z,17.55
2022-12-08T22:21:09.793Z,19.87
2022-12-08T22:23:37.291Z,13.43
2022-12-08T22:26:05.679Z,11.67
2022-12-08T22:28:35.801Z,12.37
2022-12-08T22:31:16.895Z,13.07
2022-12-08T22:33:44.320Z,11.27
2022-12-08T22:36:23.475Z,11.30
2022-12-08T22:38:51.571Z,12.20
2022-12-08T22:41:19.272Z,10.43
2022-12-08T22:43:47.387Z,11.93
2022-12-08T22:46:20.647Z,13.03
2022-12-08T22:48:48.094Z,10.83
2022-12-08T22:51:15.840Z,11.07
2022-12-08T22:53:43.260Z,12.13
2022-12-08T22:56:12.801Z,10.53
2022-12-08T22:58:41.368Z,11.10
2022-12-08T23:01:09.026Z,10.97
2022-12-08T23:03:36.203Z,12.30
2022-12-08T23:06:11.651Z,11.77
2022-12-08T23:08:38.989Z,11.67
2022-12-08T23:11:06.260Z,12.00
2022-12-08T23:13:33.229Z,10.73
2022-12-08T23:16:00.240Z,11.13
2022-12-08T23:18:27.280Z,11.83
2022-12-08T23:20:54.408Z,10.70
2022-12-08T23:23:21.640Z,11.30
2022-12-08T23:25:48.623Z,10.30
2022-12-08T23:28:15.747Z,13.33
2022-12-08T23:30:42.790Z,10.83
2022-12-08T23:33:09.897Z,11.73
2022-12-08T23:35:36.950Z,11.17
2022-12-08T23:38:04.692Z,12.40
2022-12-08T23:40:31.927Z,10.90
2022-12-08T23:42:59.165Z,11.43
2022-12-08T23:45:26.339Z,11.67
2022-12-08T23:47:53.328Z,10.80
2022-12-08T23:50:20.329Z,11.53
2022-12-08T23:52:47.343Z,11.90
2022-12-08T23:55:14.529Z,12.17
2022-12-08T23:57:41.522Z,11.60
